sensor_id;sensor_type;location;lat;lon;timestamp;temperature;humidity
16867;DHT22;8550;52.596;13.320;2023-02-03T00:03:13;3.50;99.90
16867;DHT22;8550;52.596;13.320;2023-02-03T00:08:18;3.50;99.90
16867;DHT22;8550;52.596;13.320;2023-02-03T00:13:20;3.50;99.90
16867;DHT22;8550;52.596;13.320;2023-02-03T00:18:23;3.50;99.90
16867;DHT22;8550;52.596;13.320;2023-02-03T00:23:27;3.50;99.90
16867;DHT22;8550;52.596;13.320;2023-02-03T00:28:31;3.50;99.90
16867;DHT22;8550;52.596;13.320;2023-02-03T00:33:33;3.50;99.90
16867;DHT22;8550;52.596;13.320;2023-02-03T00:38:37;3.40;99.90
16867;DHT22;8550;52.596;13.320;2023-02-03T00:43:39;3.40;99.90
16867;DHT22;8550;52.596;13.320;2023-02-03T00:48:41;3.40;99.90
16867;DHT22;8550;52.596;13.320;2023-02-03T00:53:44;3.40;99.90
16867;DHT22;8550;52.596;13.320;2023-02-03T00:58:46;3.40;99.90
16867;DHT22;8550;52.596;13.320;2023-02-03T01:03:48;3.50;99.90
16867;DHT22;8550;52.596;13.320;2023-02-03T01:08:51;3.50;99.90
16867;DHT22;8550;52.596;13.320;2023-02-03T01:13:54;3.40;99.90
16867;DHT22;8550;52.596;13.320;2023-02-03T01:18:58;3.50;99.90
16867;DHT22;8550;52.596;13.320;2023-02-03T01:24:02;3.50;99.90
16867;DHT22;8550;52.596;13.320;2023-02-03T01:29:04;3.60;99.90
16867;DHT22;8550;52.596;13.320;2023-02-03T01:34:07;3.50;99.90
16867;DHT22;8550;52.596;13.320;2023-02-03T01:39:13;3.50;99.90
16867;DHT22;8550;52.596;13.320;2023-02-03T01:44:35;3.40;99.90
16867;DHT22;8550;52.596;13.320;2023-02-03T01:49:40;3.40;99.90
16867;DHT22;8550;52.596;13.320;2023-02-03T01:54:46;3.40;99.90
16867;DHT22;8550;52.596;13.320;2023-02-03T01:59:49;3.30;99.90
16867;DHT22;8550;52.596;13.320;2023-02-03T02:04:57;3.30;99.90
16867;DHT22;8550;52.596;13.320;2023-02-03T02:10:05;3.20;99.90
16867;DHT22;8550;52.596;13.320;2023-02-03T02:15:08;3.20;99.90
16867;DHT22;8550;52.596;13.320;2023-02-03T02:20:43;3.10;99.90
16867;DHT22;8550;52.596;13.320;2023-02-03T02:26:11;3.10;99.90
16867;DHT22;8550;52.596;13.320;2023-02-03T02:31:52;3.20;99.90
16867;DHT22;8550;52.596;13.320;2023-02-03T02:37:01;3.10;99.90
16867;DHT22;8550;52.596;13.320;2023-02-03T02:42:09;3.10;99.90
16867;DHT22;8550;52.596;13.320;2023-02-03T02:47:18;3.10;99.90
16867;DHT22;8550;52.596;13.320;2023-02-03T02:52:21;3.00;99.90
16867;DHT22;8550;52.596;13.320;2023-02-03T02:57:25;3.00;99.90
16867;DHT22;8550;52.596;13.320;2023-02-03T03:02:32;3.10;99.90
16867;DHT22;8550;52.596;13.320;2023-02-03T03:07:41;3.10;99.90
16867;DHT22;8550;52.596;13.320;2023-02-03T03:12:49;3.10;99.90
16867;DHT22;8550;52.596;13.320;2023-02-03T03:18:00;3.20;99.90
16867;DHT22;8550;52.596;13.320;2023-02-03T03:23:05;3.20;99.90
16867;DHT22;8550;52.596;13.320;2023-02-03T03:28:11;3.20;99.90
16867;DHT22;8550;52.596;13.320;2023-02-03T03:33:15;3.30;99.90
16867;DHT22;8550;52.596;13.320;2023-02-03T03:38:22;3.20;99.90
16867;DHT22;8550;52.596;13.320;2023-02-03T03:43:28;3.20;99.90
16867;DHT22;8550;52.596;13.320;2023-02-03T03:48:36;3.30;99.90
16867;DHT22;8550;52.596;13.320;2023-02-03T03:53:41;3.30;99.90
16867;DHT22;8550;52.596;13.320;2023-02-03T03:58:46;3.30;99.90
16867;DHT22;8550;52.596;13.320;2023-02-03T04:03:55;3.40;99.90
16867;DHT22;8550;52.596;13.320;2023-02-03T04:08:57;3.40;99.90
16867;DHT22;8550;52.596;13.320;2023-02-03T04:13:59;3.50;99.90
16867;DHT22;8550;52.596;13.320;2023-02-03T04:19:02;3.60;99.90
16867;DHT22;8550;52.596;13.320;2023-02-03T04:24:05;3.70;99.90
16867;DHT22;8550;52.596;13.320;2023-02-03T04:29:07;3.80;99.90
16867;DHT22;8550;52.596;13.320;2023-02-03T04:34:10;3.90;99.90
16867;DHT22;8550;52.596;13.320;2023-02-03T04:39:12;4.00;99.90
16867;DHT22;8550;52.596;13.320;2023-02-03T04:44:14;4.10;99.90
16867;DHT22;8550;52.596;13.320;2023-02-03T04:49:17;4.20;99.90
16867;DHT22;8550;52.596;13.320;2023-02-03T04:54:19;4.30;99.90
16867;DHT22;8550;52.596;13.320;2023-02-03T04:59:21;4.40;99.90
16867;DHT22;8550;52.596;13.320;2023-02-03T05:04:24;4.50;99.90
16867;DHT22;8550;52.596;13.320;2023-02-03T05:09:27;4.70;99.90
16867;DHT22;8550;52.596;13.320;2023-02-03T05:14:29;4.90;99.90
16867;DHT22;8550;52.596;13.320;2023-02-03T05:19:32;5.20;99.90
16867;DHT22;8550;52.596;13.320;2023-02-03T05:24:34;5.20;99.90
16867;DHT22;8550;52.596;13.320;2023-02-03T05:29:36;5.30;99.90
16867;DHT22;8550;52.596;13.320;2023-02-03T05:34:39;5.40;99.90
16867;DHT22;8550;52.596;13.320;2023-02-03T05:39:44;5.60;99.90
16867;DHT22;8550;52.596;13.320;2023-02-03T05:44:46;5.80;99.90
16867;DHT22;8550;52.596;13.320;2023-02-03T05:49:49;5.90;99.90
16867;DHT22;8550;52.596;13.320;2023-02-03T05:54:51;6.00;99.90
16867;DHT22;8550;52.596;13.320;2023-02-03T05:59:53;6.20;99.90
16867;DHT22;8550;52.596;13.320;2023-02-03T06:04:57;6.20;99.90
16867;DHT22;8550;52.596;13.320;2023-02-03T06:15:29;6.50;99.90
16867;DHT22;8550;52.596;13.320;2023-02-03T06:20:32;6.60;99.90
16867;DHT22;8550;52.596;13.320;2023-02-03T06:25:35;6.70;99.90
16867;DHT22;8550;52.596;13.320;2023-02-03T06:30:36;6.70;99.90
16867;DHT22;8550;52.596;13.320;2023-02-03T06:35:40;6.80;99.90
16867;DHT22;8550;52.596;13.320;2023-02-03T06:40:44;6.80;99.90
16867;DHT22;8550;52.596;13.320;2023-02-03T06:45:46;7.00;99.90
16867;DHT22;8550;52.596;13.320;2023-02-03T06:50:50;7.00;99.90
16867;DHT22;8550;52.596;13.320;2023-02-03T06:55:52;7.00;99.90
16867;DHT22;8550;52.596;13.320;2023-02-03T07:00:54;7.00;99.90
16867;DHT22;8550;52.596;13.320;2023-02-03T07:05:58;7.10;99.90
16867;DHT22;8550;52.596;13.320;2023-02-03T07:11:00;7.10;99.90
16867;DHT22;8550;52.596;13.320;2023-02-03T07:16:02;7.20;99.90
16867;DHT22;8550;52.596;13.320;2023-02-03T07:21:06;7.30;99.90
16867;DHT22;8550;52.596;13.320;2023-02-03T07:26:09;7.30;99.90
16867;DHT22;8550;52.596;13.320;2023-02-03T07:31:11;7.40;99.90
16867;DHT22;8550;52.596;13.320;2023-02-03T07:36:15;7.40;99.90
16867;DHT22;8550;52.596;13.320;2023-02-03T07:41:16;7.50;99.90
16867;DHT22;8550;52.596;13.320;2023-02-03T07:46:18;7.50;99.90
16867;DHT22;8550;52.596;13.320;2023-02-03T07:51:22;7.50;99.90
16867;DHT22;8550;52.596;13.320;2023-02-03T07:56:24;7.50;99.90
16867;DHT22;8550;52.596;13.320;2023-02-03T08:01:26;7.60;99.90
16867;DHT22;8550;52.596;13.320;2023-02-03T08:06:30;7.60;99.90
16867;DHT22;8550;52.596;13.320;2023-02-03T08:11:32;7.70;99.90
16867;DHT22;8550;52.596;13.320;2023-02-03T08:16:34;7.60;99.90
16867;DHT22;8550;52.596;13.320;2023-02-03T08:21:37;7.60;99.90
16867;DHT22;8550;52.596;13.320;2023-02-03T08:26:39;7.60;99.90
16867;DHT22;8550;52.596;13.320;2023-02-03T08:31:41;7.70;99.90
16867;DHT22;8550;52.596;13.320;2023-02-03T08:36:45;7.70;99.90
16867;DHT22;8550;52.596;13.320;2023-02-03T08:41:47;7.70;99.90
16867;DHT22;8550;52.596;13.320;2023-02-03T08:46:49;7.80;99.90
16867;DHT22;8550;52.596;13.320;2023-02-03T08:51:53;7.70;99.90
16867;DHT22;8550;52.596;13.320;2023-02-03T08:56:55;7.80;99.90
16867;DHT22;8550;52.596;13.320;2023-02-03T09:01:57;7.70;99.90
16867;DHT22;8550;52.596;13.320;2023-02-03T09:07:01;7.80;99.90
16867;DHT22;8550;52.596;13.320;2023-02-03T09:12:05;7.80;99.90
16867;DHT22;8550;52.596;13.320;2023-02-03T09:17:08;7.80;99.90
16867;DHT22;8550;52.596;13.320;2023-02-03T09:22:11;7.90;99.90
16867;DHT22;8550;52.596;13.320;2023-02-03T09:27:14;7.90;99.90
16867;DHT22;8550;52.596;13.320;2023-02-03T09:32:16;7.90;99.90
16867;DHT22;8550;52.596;13.320;2023-02-03T09:37:19;8.00;99.90
16867;DHT22;8550;52.596;13.320;2023-02-03T09:42:35;8.10;99.90
16867;DHT22;8550;52.596;13.320;2023-02-03T09:47:46;8.10;99.90
16867;DHT22;8550;52.596;13.320;2023-02-03T09:52:55;8.10;99.90
16867;DHT22;8550;52.596;13.320;2023-02-03T09:58:03;8.20;99.90
16867;DHT22;8550;52.596;13.320;2023-02-03T10:03:10;8.30;99.90
16867;DHT22;8550;52.596;13.320;2023-02-03T10:08:24;8.30;99.90
16867;DHT22;8550;52.596;13.320;2023-02-03T10:13:35;8.30;99.90
16867;DHT22;8550;52.596;13.320;2023-02-03T10:18:44;8.40;99.90
16867;DHT22;8550;52.596;13.320;2023-02-03T10:23:49;8.50;99.90
16867;DHT22;8550;52.596;13.320;2023-02-03T10:28:54;8.50;99.90
16867;DHT22;8550;52.596;13.320;2023-02-03T10:34:04;8.50;99.90
16867;DHT22;8550;52.596;13.320;2023-02-03T10:39:17;8.40;99.90
16867;DHT22;8550;52.596;13.320;2023-02-03T10:44:26;8.30;99.90
16867;DHT22;8550;52.596;13.320;2023-02-03T10:49:31;7.80;99.90
16867;DHT22;8550;52.596;13.320;2023-02-03T10:54:35;7.70;99.90
16867;DHT22;8550;52.596;13.320;2023-02-03T10:59:41;7.70;99.90
16867;DHT22;8550;52.596;13.320;2023-02-03T11:04:43;7.60;99.90
16867;DHT22;8550;52.596;13.320;2023-02-03T11:09:46;7.50;99.90
16867;DHT22;8550;52.596;13.320;2023-02-03T11:14:50;7.50;99.90
16867;DHT22;8550;52.596;13.320;2023-02-03T11:19:53;7.50;99.90
16867;DHT22;8550;52.596;13.320;2023-02-03T11:24:57;7.60;99.90
16867;DHT22;8550;52.596;13.320;2023-02-03T11:30:10;7.80;99.90
16867;DHT22;8550;52.596;13.320;2023-02-03T11:35:17;8.10;99.90
16867;DHT22;8550;52.596;13.320;2023-02-03T11:40:26;8.70;99.90
16867;DHT22;8550;52.596;13.320;2023-02-03T11:45:29;8.50;99.90
16867;DHT22;8550;52.596;13.320;2023-02-03T11:50:38;8.50;99.90
16867;DHT22;8550;52.596;13.320;2023-02-03T11:55:49;8.60;99.90
16867;DHT22;8550;52.596;13.320;2023-02-03T12:01:00;9.30;99.90
16867;DHT22;8550;52.596;13.320;2023-02-03T12:06:24;9.60;99.90
16867;DHT22;8550;52.596;13.320;2023-02-03T12:11:39;9.50;99.90
16867;DHT22;8550;52.596;13.320;2023-02-03T12:17:06;9.20;99.90
16867;DHT22;8550;52.596;13.320;2023-02-03T12:22:17;9.00;99.90
16867;DHT22;8550;52.596;13.320;2023-02-03T12:27:33;8.90;99.90
16867;DHT22;8550;52.596;13.320;2023-02-03T12:32:43;9.10;99.90
16867;DHT22;8550;52.596;13.320;2023-02-03T12:37:50;9.50;99.90
16867;DHT22;8550;52.596;13.320;2023-02-03T12:42:57;9.60;99.90
16867;DHT22;8550;52.596;13.320;2023-02-03T12:48:05;9.70;99.90
16867;DHT22;8550;52.596;13.320;2023-02-03T12:53:15;8.90;99.90
16867;DHT22;8550;52.596;13.320;2023-02-03T12:58:21;7.80;99.90
16867;DHT22;8550;52.596;13.320;2023-02-03T13:03:29;5.70;99.90
16867;DHT22;8550;52.596;13.320;2023-02-03T13:08:36;5.60;99.90
16867;DHT22;8550;52.596;13.320;2023-02-03T13:13:44;5.70;99.90
16867;DHT22;8550;52.596;13.320;2023-02-03T13:18:52;5.80;99.90
16867;DHT22;8550;52.596;13.320;2023-02-03T13:23:55;5.80;99.90
16867;DHT22;8550;52.596;13.320;2023-02-03T13:29:08;5.90;99.90
16867;DHT22;8550;52.596;13.320;2023-02-03T13:34:26;5.90;99.90
16867;DHT22;8550;52.596;13.320;2023-02-03T13:39:39;6.00;99.90
16867;DHT22;8550;52.596;13.320;2023-02-03T13:44:46;6.10;99.90
16867;DHT22;8550;52.596;13.320;2023-02-03T13:49:54;6.20;99.90
16867;DHT22;8550;52.596;13.320;2023-02-03T13:55:00;6.40;99.90
16867;DHT22;8550;52.596;13.320;2023-02-03T14:00:06;6.60;99.90
16867;DHT22;8550;52.596;13.320;2023-02-03T14:05:37;6.80;99.90
16867;DHT22;8550;52.596;13.320;2023-02-03T14:10:42;7.10;99.90
16867;DHT22;8550;52.596;13.320;2023-02-03T14:16:20;7.40;99.90
16867;DHT22;8550;52.596;13.320;2023-02-03T14:21:24;7.70;99.90
16867;DHT22;8550;52.596;13.320;2023-02-03T14:26:47;7.60;99.90
16867;DHT22;8550;52.596;13.320;2023-02-03T14:31:55;7.80;99.90
16867;DHT22;8550;52.596;13.320;2023-02-03T14:37:15;7.90;99.90
16867;DHT22;8550;52.596;13.320;2023-02-03T14:47:54;8.30;99.90
16867;DHT22;8550;52.596;13.320;2023-02-03T14:53:18;8.30;99.90
16867;DHT22;8550;52.596;13.320;2023-02-03T14:58:26;8.10;99.90
16867;DHT22;8550;52.596;13.320;2023-02-03T15:03:31;8.00;99.90
16867;DHT22;8550;52.596;13.320;2023-02-03T15:08:37;7.90;99.90
16867;DHT22;8550;52.596;13.320;2023-02-03T15:13:41;7.90;99.90
16867;DHT22;8550;52.596;13.320;2023-02-03T15:18:45;7.80;99.90
16867;DHT22;8550;52.596;13.320;2023-02-03T15:23:48;7.80;99.90
16867;DHT22;8550;52.596;13.320;2023-02-03T15:28:55;7.80;99.90
16867;DHT22;8550;52.596;13.320;2023-02-03T15:34:03;7.70;99.90
16867;DHT22;8550;52.596;13.320;2023-02-03T15:39:17;7.80;99.90
16867;DHT22;8550;52.596;13.320;2023-02-03T15:44:26;7.70;99.90
16867;DHT22;8550;52.596;13.320;2023-02-03T15:49:33;7.60;99.90
16867;DHT22;8550;52.596;13.320;2023-02-03T15:54:41;7.50;99.90
16867;DHT22;8550;52.596;13.320;2023-02-03T15:59:51;7.40;99.90
16867;DHT22;8550;52.596;13.320;2023-02-03T16:04:55;7.40;99.90
16867;DHT22;8550;52.596;13.320;2023-02-03T16:09:59;7.30;99.90
16867;DHT22;8550;52.596;13.320;2023-02-03T16:15:01;7.30;99.90
16867;DHT22;8550;52.596;13.320;2023-02-03T16:20:24;7.40;99.90
16867;DHT22;8550;52.596;13.320;2023-02-03T16:25:30;7.40;99.90
16867;DHT22;8550;52.596;13.320;2023-02-03T16:30:33;7.30;99.90
16867;DHT22;8550;52.596;13.320;2023-02-03T16:35:54;7.30;99.90
16867;DHT22;8550;52.596;13.320;2023-02-03T16:41:15;7.30;99.90
16867;DHT22;8550;52.596;13.320;2023-02-03T16:46:36;7.30;99.90
16867;DHT22;8550;52.596;13.320;2023-02-03T16:51:56;7.20;99.90
16867;DHT22;8550;52.596;13.320;2023-02-03T16:56:58;7.20;99.90
16867;DHT22;8550;52.596;13.320;2023-02-03T17:02:00;7.30;99.90
16867;DHT22;8550;52.596;13.320;2023-02-03T17:07:04;7.30;99.90
16867;DHT22;8550;52.596;13.320;2023-02-03T17:12:05;7.30;99.90
16867;DHT22;8550;52.596;13.320;2023-02-03T17:17:07;7.30;99.90
16867;DHT22;8550;52.596;13.320;2023-02-03T17:22:11;7.30;99.90
16867;DHT22;8550;52.596;13.320;2023-02-03T17:27:13;7.40;99.90
16867;DHT22;8550;52.596;13.320;2023-02-03T17:32:15;7.50;99.90
16867;DHT22;8550;52.596;13.320;2023-02-03T17:37:18;7.50;99.90
16867;DHT22;8550;52.596;13.320;2023-02-03T17:42:20;7.50;99.90
16867;DHT22;8550;52.596;13.320;2023-02-03T17:47:23;7.50;99.90
16867;DHT22;8550;52.596;13.320;2023-02-03T17:52:26;7.60;99.90
16867;DHT22;8550;52.596;13.320;2023-02-03T17:57:28;7.60;99.90
16867;DHT22;8550;52.596;13.320;2023-02-03T18:02:30;7.60;99.90
16867;DHT22;8550;52.596;13.320;2023-02-03T18:07:33;7.60;99.90
16867;DHT22;8550;52.596;13.320;2023-02-03T18:12:35;7.60;99.90
16867;DHT22;8550;52.596;13.320;2023-02-03T18:17:37;7.60;99.90
16867;DHT22;8550;52.596;13.320;2023-02-03T18:22:43;7.60;99.90
16867;DHT22;8550;52.596;13.320;2023-02-03T18:27:45;7.60;99.90
16867;DHT22;8550;52.596;13.320;2023-02-03T18:32:49;7.60;99.90
16867;DHT22;8550;52.596;13.320;2023-02-03T18:37:52;7.70;99.90
16867;DHT22;8550;52.596;13.320;2023-02-03T18:42:54;7.70;99.90
16867;DHT22;8550;52.596;13.320;2023-02-03T18:47:56;7.60;99.90
16867;DHT22;8550;52.596;13.320;2023-02-03T18:53:00;7.70;99.90
16867;DHT22;8550;52.596;13.320;2023-02-03T18:58:02;7.60;99.90
16867;DHT22;8550;52.596;13.320;2023-02-03T19:03:04;7.70;99.90
16867;DHT22;8550;52.596;13.320;2023-02-03T19:08:08;7.70;99.90
16867;DHT22;8550;52.596;13.320;2023-02-03T19:13:10;7.70;99.90
16867;DHT22;8550;52.596;13.320;2023-02-03T19:18:13;7.70;99.90
16867;DHT22;8550;52.596;13.320;2023-02-03T19:23:16;7.60;99.90
16867;DHT22;8550;52.596;13.320;2023-02-03T19:28:18;7.60;99.90
16867;DHT22;8550;52.596;13.320;2023-02-03T19:33:20;7.60;99.90
16867;DHT22;8550;52.596;13.320;2023-02-03T19:38:23;7.40;99.90
16867;DHT22;8550;52.596;13.320;2023-02-03T19:43:26;7.30;99.90
16867;DHT22;8550;52.596;13.320;2023-02-03T19:48:29;7.30;99.90
16867;DHT22;8550;52.596;13.320;2023-02-03T19:53:32;7.20;99.90
16867;DHT22;8550;52.596;13.320;2023-02-03T19:58:34;7.10;99.90
16867;DHT22;8550;52.596;13.320;2023-02-03T20:03:36;7.20;99.90
16867;DHT22;8550;52.596;13.320;2023-02-03T20:08:40;7.20;99.90
16867;DHT22;8550;52.596;13.320;2023-02-03T20:13:42;7.20;99.90
16867;DHT22;8550;52.596;13.320;2023-02-03T20:18:44;7.20;99.90
16867;DHT22;8550;52.596;13.320;2023-02-03T20:23:47;7.00;99.90
16867;DHT22;8550;52.596;13.320;2023-02-03T20:28:49;7.00;99.90
16867;DHT22;8550;52.596;13.320;2023-02-03T20:33:51;6.80;99.90
16867;DHT22;8550;52.596;13.320;2023-02-03T20:38:54;6.70;99.90
16867;DHT22;8550;52.596;13.320;2023-02-03T20:43:56;6.70;99.90
16867;DHT22;8550;52.596;13.320;2023-02-03T20:48:58;6.60;99.90
16867;DHT22;8550;52.596;13.320;2023-02-03T20:54:07;6.50;99.90
16867;DHT22;8550;52.596;13.320;2023-02-03T20:59:15;6.50;99.90
16867;DHT22;8550;52.596;13.320;2023-02-03T21:04:18;6.50;99.90
16867;DHT22;8550;52.596;13.320;2023-02-03T21:09:39;6.40;99.90
16867;DHT22;8550;52.596;13.320;2023-02-03T21:14:43;6.10;99.90
16867;DHT22;8550;52.596;13.320;2023-02-03T21:19:49;5.60;99.90
16867;DHT22;8550;52.596;13.320;2023-02-03T21:24:53;5.40;99.90
16867;DHT22;8550;52.596;13.320;2023-02-03T21:29:57;5.20;99.90
16867;DHT22;8550;52.596;13.320;2023-02-03T21:35:00;5.00;99.90
16867;DHT22;8550;52.596;13.320;2023-02-03T21:40:16;4.80;99.90
16867;DHT22;8550;52.596;13.320;2023-02-03T21:45:32;4.70;99.90
16867;DHT22;8550;52.596;13.320;2023-02-03T21:50:37;4.60;99.90
16867;DHT22;8550;52.596;13.320;2023-02-03T21:55:42;4.50;99.90
16867;DHT22;8550;52.596;13.320;2023-02-03T22:00:44;4.50;99.90
16867;DHT22;8550;52.596;13.320;2023-02-03T22:05:48;4.40;99.90
16867;DHT22;8550;52.596;13.320;2023-02-03T22:10:51;4.40;99.90
16867;DHT22;8550;52.596;13.320;2023-02-03T22:15:53;4.30;99.90
16867;DHT22;8550;52.596;13.320;2023-02-03T22:20:55;4.30;99.90
16867;DHT22;8550;52.596;13.320;2023-02-03T22:25:58;4.20;99.90
16867;DHT22;8550;52.596;13.320;2023-02-03T22:31:00;4.10;99.90
16867;DHT22;8550;52.596;13.320;2023-02-03T22:36:04;4.10;99.90
16867;DHT22;8550;52.596;13.320;2023-02-03T22:41:08;4.00;99.90
16867;DHT22;8550;52.596;13.320;2023-02-03T22:46:12;4.20;99.90
16867;DHT22;8550;52.596;13.320;2023-02-03T22:51:14;4.00;99.90
16867;DHT22;8550;52.596;13.320;2023-02-03T22:56:17;4.10;99.90
16867;DHT22;8550;52.596;13.320;2023-02-03T23:01:19;4.10;99.90
16867;DHT22;8550;52.596;13.320;2023-02-03T23:06:21;4.00;99.90
16867;DHT22;8550;52.596;13.320;2023-02-03T23:11:24;4.00;99.90
16867;DHT22;8550;52.596;13.320;2023-02-03T23:16:26;4.00;99.90
16867;DHT22;8550;52.596;13.320;2023-02-03T23:21:28;4.10;99.90
16867;DHT22;8550;52.596;13.320;2023-02-03T23:26:31;4.10;99.90
16867;DHT22;8550;52.596;13.320;2023-02-03T23:31:33;4.00;99.90
16867;DHT22;8550;52.596;13.320;2023-02-03T23:36:35;3.90;99.90
16867;DHT22;8550;52.596;13.320;2023-02-03T23:41:38;3.70;99.90
16867;DHT22;8550;52.596;13.320;2023-02-03T23:46:40;3.70;99.90
16867;DHT22;8550;52.596;13.320;2023-02-03T23:51:42;3.80;99.90
16867;DHT22;8550;52.596;13.320;2023-02-03T23:56:45;3.70;99.90
